• Join FlightAware (Why Join?)
  • Login
  • US Flag 
10:05AM EDT


 

Airport Tracker/Info


-or-


 

Live Flight TrackerFlight Track Log ✈ SWA868 ✈ 05-Oct-2013 ✈ KONT - KMDW

Flight Track Log - Related Links

Times and Time Zones

All times are in EDT time to prevent confusion due to time zone crossing. See the SWA868 flight status page for this flight to view local times or setup timezone preferences in your user account.

Time Position Orientation Groundspeed Altitude Reporting Facility
EDT Latitude Longitude Course Direction KTS MPH feet Rate Location/Type
12:26PM 34.0528 -117.5750 64° Northeast 168 193 37,000  Level Los Angeles Center
12:27PM 34.0028 -117.6003 203° Southwest 258 297 3,600 -15,120 Descending Los Angeles Center
12:28PM 34.0364 -117.6797 297° West 270 311 5,800 1,560 Climbing Los Angeles Center
12:29PM 34.0725 -117.7667 297° West 284 327 6,900 1,440 Climbing Los Angeles Center
12:30PM 34.1267 -117.8414 311° West 299 344 8,800 1,980 Climbing Los Angeles Center
12:31PM 34.1856 -117.9122 315° West 301 346 11,000 2,520 Climbing Los Angeles Center
12:32PM 34.3371 -116.9316 64° Northeast  Level Estimated
12:33PM 34.2869 -117.9611 338° Northwest 355 409 14,100  Level Los Angeles Center
12:34PM 34.3481 -117.8725 50° Northeast 353 406 16,800 2,400 Climbing Los Angeles Center
12:35PM 34.3981 -117.7689 60° Northeast 364 419 19,100 2,100 Climbing Los Angeles Center
12:36PM 34.4511 -117.6597 59° Northeast 378 435 21,200 1,800 Climbing Los Angeles Center
12:37PM 34.5064 -117.5422 60° Northeast 402 463 22,900 1,740 Climbing Los Angeles Center
12:38PM 34.5647 -117.4206 60° Northeast 418 481 24,800 1,920 Climbing Los Angeles Center
12:39PM 34.6508 -117.2814 53° Northeast 435 501 26,900 1,740 Climbing Los Angeles Center
12:40PM 34.7292 -117.1675 50° Northeast 441 507 28,400 1,380 Climbing Los Angeles Center
12:41PM 34.8097 -117.0500 50° Northeast 452 520 29,800 1,440 Climbing Los Angeles Center
12:42PM 34.8922 -116.9300 50° Northeast 464 534 31,400 1,560 Climbing Los Angeles Center
12:43PM 34.9736 -116.8117 50° Northeast 460 529 33,100 1,560 Climbing Los Angeles Center
12:44PM 35.0700 -116.6689 50° Northeast 458 527 34,700 1,440 Climbing Los Angeles Center
12:45PM 35.1506 -116.5525 50° Northeast 452 520 36,100 1,080 Climbing Los Angeles Center
12:46PM 35.2300 -116.4350 50° Northeast 451 519 37,000 420 Climbing Los Angeles Center
12:47PM 35.3111 -116.3161 50° Northeast 455 524 37,000  Level Los Angeles Center
12:48PM 35.3897 -116.1969 51° Northeast 453 521 37,000  Level Los Angeles Center
12:49PM 35.4686 -116.0775 51° Northeast 451 519 37,000  Level Los Angeles Center
12:50PM 35.5569 -115.9253 54° Northeast 460 529 37,000  Level Los Angeles Center
12:51PM 35.6044 -115.7972 65° Northeast 463 533 37,000  Level Los Angeles Center
12:52PM 35.6681 -115.6275 65° Northeast 460 529 37,000  Level Los Angeles Center
12:53PM 35.7203 -115.4875 65° Northeast 455 524 37,000  Level Los Angeles Center
12:54PM 35.7725 -115.3461 65° Northeast 457 526 37,000  Level Los Angeles Center
12:55PM 35.8231 -115.2075 66° East 450 518 37,000  Level Los Angeles Center
12:56PM 35.8719 -115.0700 66° East 443 510 37,000  Level Los Angeles Center
12:57PM 35.9239 -114.9303 65° Northeast 447 514 37,000  Level Los Angeles Center
12:58PM 35.9850 -114.7619 66° East 449 517 37,000  Level Los Angeles Center
12:59PM 36.0350 -114.6219 66° East 448 516 37,000  Level Los Angeles Center
01:00PM 36.0850 -114.4822 66° East 447 514 37,000  Level Los Angeles Center
01:01PM 36.1356 -114.3431 66° East 446 513 37,000  Level Los Angeles Center
01:02PM 36.1861 -114.2017 66° East 448 516 37,000  Level Los Angeles Center
01:03PM 36.2367 -114.0606 66° East 449 517 37,000  Level Los Angeles Center
01:04PM 36.2964 -113.8892 67° East 451 519 37,000 -240 Level Los Angeles Center
01:06PM 36.3467 -113.7461 66° East 453 521 36,600 -660 Descending Los Angeles Center
01:07PM 36.3950 -113.6103 66° East 439 505 35,700 -780 Descending Los Angeles Center
01:08PM 36.4408 -113.4783 67° East 426 490 35,000 -360 Descending Los Angeles Center
01:09PM 36.4842 -113.3450 68° East 421 484 35,000  Level Los Angeles Center
01:10PM 36.5333 -113.2139 65° Northeast 418 481 35,000  Level Los Angeles Center
01:11PM 36.5881 -113.0589 66° East 414 476 35,000  Level Los Angeles Center
01:12PM 36.6319 -112.9281 67° East 412 474 35,000  Level Los Angeles Center
01:13PM 36.6756 -112.7961 68° East 413 475 35,000  Level Los Angeles Center
01:14PM 36.7203 -112.6681 66° East 409 471 35,000  Level Los Angeles Center
01:15PM 36.7647 -112.5372 67° East 410 472 35,000  Level Los Angeles Center
01:16PM 36.8083 -112.4069 67° East 410 472 35,000  Level Los Angeles Center
01:17PM 36.8617 -112.2489 67° East 413 475 35,000  Level Los Angeles Center
01:18PM 36.9056 -112.1167 67° East 414 476 35,000  Level Los Angeles Center
01:19PM 36.9503 -111.9819 67° East 419 482 35,000  Level Los Angeles Center
01:20PM 36.9944 -111.8483 67° East 419 482 35,000  Level Los Angeles Center
01:21PM 37.0389 -111.7150 67° East 418 481 35,000  Level Los Angeles Center
01:22PM 37.0911 -111.5556 68° East 415 478 35,000  Level Los Angeles Center
01:23PM 37.1353 -111.4225 67° East 416 479 35,000  Level Los Angeles Center
01:24PM 37.1783 -111.2897 68° East 413 475 35,000  Level Los Angeles Center
01:25PM 37.2275 -111.1311 69° East 409 471 35,000  Level Denver Center
01:26PM 37.2700 -110.9981 68° East 413 475 35,000  Level Denver Center
01:27PM 37.3125 -110.8658 68° East 410 472 35,000  Level Denver Center
01:28PM 37.3553 -110.7319 68° East 413 475 35,000  Level Denver Center
01:29PM 37.3981 -110.5964 68° East 419 482 35,000  Level Denver Center
01:30PM 37.4400 -110.4617 69° East 415 478 35,000  Level Denver Center
01:31PM 37.4914 -110.2989 68° East 420 483 35,000  Level Denver Center
01:32PM 37.5322 -110.1678 69° East 419 482 35,000  Level Denver Center
01:34PM 37.5797 -110.0144 69° East 419 482 35,000  Level Denver Center
01:35PM 37.6211 -109.8825 68° East 422 486 35,000  Level Denver Center
01:36PM 37.6617 -109.7508 69° East 420 483 35,000  Level Denver Center
01:37PM 37.7092 -109.5967 69° East 421 484 35,000  Level Denver Center
01:38PM 37.7492 -109.4636 69° East 423 487 35,000  Level Denver Center
01:39PM 37.7967 -109.3067 69° East 426 490 35,000  Level Denver Center
01:40PM 37.8369 -109.1708 69° East 430 495 35,000  Level Denver Center
01:41PM 37.8844 -109.0153 69° East 424 488 35,000  Level Denver Center
01:42PM 37.9244 -108.8767 70° East 435 501 35,000  Level Denver Center
01:43PM 37.9717 -108.7239 69° East 422 486 35,000  Level Denver Center
01:44PM 38.0122 -108.5881 69° East 424 488 35,000  Level Denver Center
01:45PM 38.0522 -108.4486 70° East 434 499 35,000  Level Denver Center
01:46PM 38.0994 -108.2839 70° East 440 506 35,000  Level Denver Center
01:47PM 38.1389 -108.1458 70° East 437 503 35,000  Level Denver Center
01:48PM 38.1847 -107.9861 70° East 433 498 35,000  Level Denver Center
01:49PM 38.2178 -107.8442 73° East 436 502 35,000  Level Denver Center
01:50PM 38.2522 -107.6800 75° East 434 499 35,000  Level Denver Center
01:51PM 38.2822 -107.5394 75° East 433 498 35,000  Level Denver Center
01:52PM 38.3189 -107.3747 74° East 432 497 35,000  Level Denver Center
01:53PM 38.3492 -107.2333 75° East 433 498 35,000  Level Denver Center
01:54PM 38.3792 -107.0942 75° East 431 496 35,000  Level Denver Center
01:55PM 38.4219 -106.9561 68° East 422 486 35,000  Level Denver Center
01:56PM 38.5208 -106.8281 45° Northeast 421 484 35,000  Level Denver Center
01:57PM 38.6014 -106.7233 45° Northeast 416 479 35,000  Level Denver Center
01:58PM 38.6325 -106.5753 75° East 437 503 35,000  Level Denver Center
01:59PM 38.6592 -106.4247 77° East 436 502 35,000  Level Denver Center
02:00PM 38.6853 -106.2747 77° East 434 499 35,000  Level Denver Center
02:01PM 38.7142 -106.1161 77° East 433 498 35,000  Level Denver Center
02:02PM 38.7392 -105.9678 78° East 429 494 35,000  Level Denver Center
02:03PM 38.7697 -105.7869 78° East 434 499 35,000  Level Denver Center
02:04PM 38.7950 -105.6361 78° East 435 501 35,000  Level Denver Center
02:05PM 38.8200 -105.4881 78° East 429 494 35,000  Level Denver Center
02:07PM 38.8447 -105.3350 78° East 437 503 35,000  Level Denver Center
02:08PM 38.8700 -105.1864 78° East 431 496 35,000  Level Denver Center
02:09PM 38.8933 -105.0372 79° East 430 495 35,000  Level Denver Center
02:10PM 38.9228 -104.8597 78° East 426 490 35,000  Level Denver Center
02:11PM 38.9469 -104.7125 78° East 426 490 35,000  Level Denver Center
02:12PM 38.9706 -104.5661 78° East 423 487 35,000  Level Denver Center
02:13PM 38.9931 -104.4189 79° East 423 487 35,000  Level Denver Center
02:14PM 39.0156 -104.2717 79° East 423 487 35,000  Level Denver Center
02:15PM 39.0389 -104.1219 79° East 428 493 35,000  Level Denver Center
02:16PM 39.0675 -103.9403 78° East 434 499 35,000  Level Denver Center
02:17PM 39.0906 -103.7894 79° East 433 498 35,000  Level Denver Center
02:18PM 39.1128 -103.6392 79° East 432 497 35,000  Level Denver Center
02:19PM 39.1356 -103.4856 79° East 437 503 35,000  Level Denver Center
02:20PM 39.1592 -103.3331 79° East 438 504 35,000  Level Denver Center
02:21PM 39.1822 -103.1786 79° East 441 507 35,000  Level Denver Center
02:22PM 39.2089 -102.9894 80° East 446 513 35,000  Level Denver Center
02:23PM 39.2319 -102.8331 79° East 447 514 35,000  Level Denver Center
02:24PM 39.2508 -102.6864 81° East 449 517 35,000  Level Denver Center
02:25PM 39.2761 -102.5067 80° East 455 524 35,000  Level Denver Center
02:26PM 39.2986 -102.3506 79° East 459 528 35,000  Level Denver Center
02:27PM 39.3228 -102.1681 80° East 462 532 35,000  Level Denver Center
02:28PM 39.3458 -102.0067 79° East 461 531 35,000  Level Denver Center
02:29PM 39.3664 -101.8517 80° East 460 529 35,000  Level Denver Center
02:30PM 39.3906 -101.6703 80° East 458 527 35,000  Level Denver Center
02:31PM 39.4181 -101.5158 77° East 462 532 35,000  Level Denver Center
02:32PM 39.4486 -101.3364 78° East 460 529 35,000  Level Denver Center
02:33PM 39.4756 -101.1806 77° East 463 533 35,000  Level Denver Center
02:34PM 39.5014 -101.0244 78° East 464 534 35,000  Level Denver Center
02:35PM 39.5325 -100.8386 78° East 473 544 35,000  Level Denver Center
02:36PM 39.5583 -100.6817 78° East 469 540 35,000  Level Denver Center
02:37PM 39.5892 -100.4933 78° East 475 547 35,000  Level Denver Center
02:38PM 39.6158 -100.3322 78° East 479 551 35,000  Level Denver Center
02:39PM 39.6464 -100.1406 78° East 485 558 35,000  Level Denver Center
02:40PM 39.6717 -99.9764 79° East 486 559 35,000  Level Denver Center
02:41PM 39.6992 -99.8036 78° East 490 564 35,000  Level Denver Center
02:42PM 39.7256 -99.6303 79° East 490 564 35,000  Level Denver Center
02:44PM 39.7528 -99.4564 78° East 491 565 35,000  Level Denver Center
02:45PM 39.7850 -99.2461 79° East 494 568 35,000  Level Denver Center
02:46PM 39.8114 -99.0669 79° East 504 580 35,000  Level Denver Center
02:47PM 39.8378 -98.8894 79° East 503 579 35,000  Level Denver Center
02:47PM 39.8481 -98.8189 79° East 503 579 35,000  Level Minneapolis Center
02:48PM 39.8806 -98.6017 79° East 508 585 35,000  Level Minneapolis Center
02:49PM 39.9061 -98.4203 80° East 510 587 35,000  Level Minneapolis Center
02:50PM 39.9311 -98.2397 80° East 509 586 35,000  Level Minneapolis Center
02:51PM 39.9569 -98.0581 79° East 510 587 35,000  Level Minneapolis Center
02:52PM 39.9814 -97.8753 80° East 512 589 35,000  Level Minneapolis Center
02:53PM 40.0075 -97.6928 79° East 513 590 35,000  Level Minneapolis Center
02:54PM 40.0322 -97.5097 80° East 513 590 35,000  Level Minneapolis Center
02:55PM 40.0578 -97.3189 80° East 507 583 35,000 300 Level Minneapolis Center
02:56PM 40.0806 -97.1375 81° East 507 583 35,700 840 Climbing Minneapolis Center
02:57PM 40.1053 -96.9586 80° East 505 581 36,800 600 Climbing Minneapolis Center
02:58PM 40.1322 -96.7425 81° East 504 580 37,000 60 Climbing Minneapolis Center
02:59PM 40.1558 -96.5614 80° East 506 582 37,000  Level Minneapolis Center
03:00PM 40.1786 -96.3814 81° East 506 582 37,000  Level Minneapolis Center
03:01PM 40.2014 -96.2022 80° East 502 578 37,000  Level Minneapolis Center
03:03PM 40.2331 -96.0247 77° East 503 579 37,000  Level Minneapolis Center
03:04PM 40.2667 -95.8478 76° East 504 580 37,000  Level Minneapolis Center
03:05PM 40.2986 -95.6719 77° East 503 579 37,000  Level Minneapolis Center
03:06PM 40.3361 -95.4628 77° East 499 574 37,000  Level Minneapolis Center
03:07PM 40.3686 -95.2864 76° East 498 573 37,000  Level Minneapolis Center
03:08PM 40.4008 -95.1081 77° East 500 575 37,000  Level Minneapolis Center
03:09PM 40.4319 -94.9297 77° East 502 578 37,000  Level Minneapolis Center
03:10PM 40.4622 -94.7522 77° East 502 578 37,000  Level Minneapolis Center
03:11PM 40.4933 -94.5750 77° East 501 577 37,000  Level Minneapolis Center
03:12PM 40.5228 -94.4019 77° East 500 575 37,000  Level Minneapolis Center
03:13PM 40.5533 -94.2289 77° East 493 567 37,000  Level Minneapolis Center
03:14PM 40.5875 -94.0219 78° East 489 563 37,000  Level Minneapolis Center
03:15PM 40.6136 -93.8508 79° East 484 557 37,000  Level Minneapolis Center
03:16PM 40.6389 -93.6794 79° East 482 555 37,000  Level Minneapolis Center
03:17PM 40.6631 -93.5075 79° East 480 552 37,000  Level Minneapolis Center
03:18PM 40.6886 -93.3342 79° East 484 557 37,000  Level Minneapolis Center
03:19PM 40.7139 -93.1583 79° East 484 557 37,000  Level Chicago Center
03:20PM 40.7378 -92.9850 80° East 483 556 37,000  Level Chicago Center
03:21PM 40.7633 -92.8111 79° East 483 556 37,000 -300 Level Chicago Center
03:22PM 40.7867 -92.6358 80° East 485 558 36,500 -840 Descending Chicago Center
03:23PM 40.8153 -92.4275 80° East 482 555 35,300 -1,080 Descending Chicago Center
03:24PM 40.8375 -92.2544 80° East 480 552 34,300 -1,020 Descending Chicago Center
03:25PM 40.8603 -92.0806 80° East 481 554 33,300 -960 Descending Chicago Center
03:26PM 40.8836 -91.9042 80° East 488 562 32,400 -1,020 Descending Chicago Center
03:27PM 40.9058 -91.7300 80° East 484 557 31,300 -1,260 Descending Chicago Center
03:28PM 40.9272 -91.5617 80° East 470 541 29,900 -1,500 Descending Chicago Center
03:29PM 40.9475 -91.3953 81° East 463 533 28,300 -1,380 Descending Chicago Center
03:30PM 40.9722 -91.2006 80° East 459 528 27,100 -1,080 Descending Chicago Center
03:31PM 40.9931 -91.0361 80° East 456 525 26,100 -1,020 Descending Chicago Center
03:32PM 41.0122 -90.8742 81° East 448 516 25,100 -1,140 Descending Chicago Center
03:33PM 41.0317 -90.7122 81° East 445 512 23,800 -1,080 Descending Chicago Center
03:34PM 41.0589 -90.5397 78° East 470 541 23,000 -420 Descending Chicago Center
03:35PM 41.0997 -90.3664 73° East 487 560 23,000  Level Chicago Center
03:36PM 41.1392 -90.1936 73° East 485 558 23,000 -660 Level Chicago Center
03:37PM 41.1786 -90.0192 73° East 489 563 21,700 -2,280 Descending Chicago Center
03:38PM 41.2247 -89.8144 73° East 480 552 18,400 -2,940 Descending Chicago Center
03:39PM 41.2603 -89.6556 73° East 452 520 15,700 -1,680 Descending Chicago Center
03:40PM 41.2931 -89.5089 73° East 420 483 15,000 -360 Descending Chicago Center
03:41PM 41.3258 -89.3589 74° East 420 483 15,000 -720 Level Chicago Center
03:43PM 41.3583 -89.2097 74° East 420 483 13,600 -1,920 Descending Chicago Center
03:44PM 41.3897 -89.0597 74° East 410 472 11,100 -1,680 Descending Chicago Center
03:45PM 41.4183 -88.9250 74° East 382 440 10,200 -1,020 Descending Chicago Center
03:46PM 41.4439 -88.8061 74° East 341 392 9,100 -1,260 Descending Chicago Center
03:47PM 41.4669 -88.6931 75° East 323 372 7,700 -1,020 Descending Chicago Center
03:48PM 41.4939 -88.5664 74° East 303 349 7,000 -360 Descending Chicago Center
03:49PM 41.5156 -88.4636 74° East 292 336 7,000 -120 Level Chicago Center
03:50PM 41.5442 -88.3639 69° East 294 338 6,800 -840 Descending Chicago Center
03:51PM 41.5886 -88.2708 57° Northeast 296 341 5,300 -1,260 Descending Chicago Center
03:52PM 41.6186 -88.1744 67° East 287 330 4,300 -1,140 Descending Chicago Center
03:53PM 41.6219 -88.0714 87° East 280 322 3,000 -660 Descending Chicago Center
03:54PM 41.6281 -87.9731 85° East 272 313 3,000  Level Chicago Center
03:55PM 41.6333 -87.8781 86° East 264 304 3,000 -300 Level Chicago Center
03:56PM 41.6406 -87.7836 84° East 246 283 2,500 -300 Descending Chicago Center
03:57PM 41.6900 -87.7322 38° Northeast 233 268 2,500 -240 Level Chicago Center
03:58PM 41.7506 -87.7061 18° North 231 266 2,100 -420 Descending Chicago Center
03:59PM 41.7986 -87.6839 19° North 202 232 1,700 -540 Descending Chicago Center
04:00PM 41.8083 -87.7228 289° West 172 198 1,100 -420 Descending Chicago Center
04:01PM 41.7881 -87.7606 234° Southwest 164 189 900 -240 Descending Chicago Center